createdAt,value
2022-08-26T00:02:01.598Z,24.58
2022-08-26T00:04:29.218Z,24.50
2022-08-26T00:06:57.071Z,24.47
2022-08-26T00:09:25.727Z,24.22
2022-08-26T00:11:54.640Z,24.43
2022-08-26T00:14:28.335Z,24.39
2022-08-26T00:16:58.685Z,24.27
2022-08-26T00:19:26.612Z,24.62
2022-08-26T00:21:54.240Z,24.41
2022-08-26T00:24:23.530Z,24.36
2022-08-26T00:26:51.744Z,24.43
2022-08-26T00:29:21.213Z,24.50
2022-08-26T00:31:48.762Z,24.67
2022-08-26T00:34:16.848Z,24.55
2022-08-26T00:36:49.196Z,24.47
2022-08-26T00:39:20.244Z,24.41
2022-08-26T00:41:48.145Z,24.47
2022-08-26T00:44:15.477Z,24.84
2022-08-26T00:46:47.191Z,24.67
2022-08-26T00:49:20.582Z,24.36
2022-08-26T00:51:54.581Z,24.30
2022-08-26T00:54:27.037Z,24.33
2022-08-26T00:57:16.516Z,24.55
2022-08-26T00:59:51.488Z,24.71
2022-08-26T01:02:21.175Z,24.43
2022-08-26T01:04:55.697Z,24.45
2022-08-26T01:07:30.325Z,24.46
2022-08-26T01:10:01.461Z,24.40
2022-08-26T01:12:34.023Z,24.38
2022-08-26T01:15:02.235Z,24.53
2022-08-26T01:17:29.921Z,24.38
2022-08-26T01:20:10.662Z,24.41
2022-08-26T01:22:50.822Z,24.37
2022-08-26T01:25:21.621Z,24.36
2022-08-26T01:27:50.965Z,24.24
2022-08-26T01:30:19.150Z,24.35
2022-08-26T01:32:48.107Z,24.39
2022-08-26T01:35:15.608Z,24.39
2022-08-26T01:37:43.763Z,24.37
2022-08-26T01:40:17.113Z,24.45
2022-08-26T01:42:44.965Z,24.37
2022-08-26T01:45:25.786Z,24.48
2022-08-26T01:47:57.023Z,24.33
2022-08-26T01:50:34.153Z,24.36
2022-08-26T01:53:06.907Z,24.21
2022-08-26T01:55:35.476Z,24.15
2022-08-26T01:58:10.920Z,23.89
2022-08-26T02:00:39.460Z,23.88
2022-08-26T02:03:17.526Z,23.92
2022-08-26T02:06:00.688Z,24.03
2022-08-26T02:08:37.448Z,24.06
2022-08-26T02:11:05.089Z,23.83
2022-08-26T02:13:37.855Z,24.14
2022-08-26T02:16:06.190Z,23.97
2022-08-26T02:18:39.187Z,23.89
2022-08-26T02:21:08.157Z,23.85
2022-08-26T02:23:35.853Z,23.85
2022-08-26T02:26:21.706Z,23.90
2022-08-26T02:29:10.875Z,24.06
2022-08-26T02:31:39.449Z,24.09
2022-08-26T02:34:15.971Z,24.05
2022-08-26T02:36:43.804Z,23.83
2022-08-26T02:39:12.184Z,23.81
2022-08-26T02:41:45.192Z,23.97
2022-08-26T02:44:13.272Z,24.01
2022-08-26T02:46:41.181Z,24.29
2022-08-26T02:49:10.329Z,24.17
2022-08-26T02:51:38.632Z,24.22
2022-08-26T02:54:07.285Z,24.37
2022-08-26T02:56:35.291Z,24.28
2022-08-26T02:59:02.857Z,24.12
2022-08-26T03:01:34.358Z,23.95
2022-08-26T03:04:04.449Z,24.07
2022-08-26T03:06:31.816Z,24.03
2022-08-26T03:08:59.988Z,24.10
2022-08-26T03:11:32.274Z,23.97
2022-08-26T03:14:00.685Z,23.72
2022-08-26T03:16:39.294Z,23.52
2022-08-26T03:19:08.445Z,23.48
2022-08-26T03:21:38.120Z,23.65
2022-08-26T03:24:05.967Z,23.83
2022-08-26T03:26:33.384Z,23.94
2022-08-26T03:29:20.143Z,24.07
2022-08-26T03:31:47.459Z,23.85
2022-08-26T03:34:15.175Z,24.12
2022-08-26T03:36:42.621Z,24.04
2022-08-26T03:39:11.079Z,23.77
2022-08-26T03:41:38.715Z,23.79
2022-08-26T03:44:09.005Z,23.68
2022-08-26T03:46:36.775Z,23.64
2022-08-26T03:49:07.895Z,23.64
2022-08-26T03:51:38.911Z,23.52
2022-08-26T03:54:08.511Z,23.42
2022-08-26T03:56:36.836Z,23.46
2022-08-26T03:59:07.462Z,23.38
2022-08-26T04:01:36.176Z,23.42
2022-08-26T04:04:04.316Z,23.46
2022-08-26T04:06:43.359Z,23.44
2022-08-26T04:09:19.939Z,23.52
2022-08-26T04:11:50.526Z,23.41
2022-08-26T04:14:21.711Z,23.35
2022-08-26T04:16:49.930Z,23.35
2022-08-26T04:19:19.329Z,23.51
2022-08-26T04:21:48.614Z,23.44
2022-08-26T04:24:17.643Z,23.91
2022-08-26T04:26:45.808Z,23.56
2022-08-26T04:29:18.173Z,23.51
2022-08-26T04:31:46.076Z,23.60
2022-08-26T04:34:14.113Z,23.83
2022-08-26T04:36:43.132Z,23.86
2022-08-26T04:39:12.586Z,23.96
2022-08-26T04:41:40.292Z,23.91
2022-08-26T04:44:07.920Z,23.82
2022-08-26T04:46:36.536Z,23.90
2022-08-26T04:49:11.134Z,23.97
2022-08-26T04:51:39.134Z,24.10
2022-08-26T04:54:07.663Z,24.16
2022-08-26T04:56:38.909Z,24.16
2022-08-26T04:59:08.322Z,24.03
2022-08-26T05:01:47.121Z,23.99
2022-08-26T05:04:18.742Z,24.03
2022-08-26T05:06:52.137Z,24.30
2022-08-26T05:09:20.296Z,24.24
2022-08-26T05:11:52.033Z,24.14
2022-08-26T05:14:20.873Z,24.21
2022-08-26T05:16:48.249Z,24.26
2022-08-26T05:19:19.117Z,24.22
2022-08-26T05:21:48.717Z,24.14
2022-08-26T05:24:18.422Z,24.08
2022-08-26T05:26:48.271Z,24.16
2022-08-26T05:29:16.050Z,24.25
2022-08-26T05:31:44.357Z,24.22
2022-08-26T05:34:12.651Z,24.38
2022-08-26T05:36:40.262Z,24.48
2022-08-26T05:39:10.554Z,24.53
2022-08-26T05:41:41.132Z,24.54
2022-08-26T05:44:12.034Z,24.55
2022-08-26T05:46:44.096Z,24.70
2022-08-26T05:49:13.227Z,24.82
2022-08-26T05:51:45.234Z,25.00
2022-08-26T05:54:14.482Z,25.12
2022-08-26T05:56:49.283Z,24.93
2022-08-26T05:59:16.643Z,24.85
2022-08-26T06:01:52.188Z,24.94
2022-08-26T06:04:20.042Z,24.96
2022-08-26T06:06:47.942Z,25.10
2022-08-26T06:09:18.212Z,25.16
2022-08-26T06:11:45.933Z,25.22
2022-08-26T06:14:13.273Z,25.15
2022-08-26T06:16:45.168Z,25.15
2022-08-26T06:19:16.694Z,25.23
2022-08-26T06:21:51.330Z,25.63
2022-08-26T06:24:44.523Z,25.46
2022-08-26T06:27:15.345Z,25.45
2022-08-26T06:29:42.995Z,25.56
2022-08-26T06:32:10.851Z,25.83
2022-08-26T06:34:38.439Z,25.60
2022-08-26T06:37:07.223Z,25.70
2022-08-26T06:39:34.988Z,25.77
2022-08-26T06:42:06.146Z,26.10
2022-08-26T06:44:34.899Z,26.07
2022-08-26T06:47:02.172Z,26.06
2022-08-26T06:49:30.532Z,26.03
2022-08-26T06:52:01.313Z,26.07
2022-08-26T06:54:31.837Z,26.43
2022-08-26T06:56:59.471Z,26.25
2022-08-26T06:59:27.317Z,26.41
2022-08-26T07:01:55.255Z,26.25
2022-08-26T07:04:25.012Z,26.40
2022-08-26T07:06:56.578Z,26.69
2022-08-26T07:09:28.188Z,26.46
2022-08-26T07:11:58.865Z,26.47
2022-08-26T07:14:26.661Z,26.66
2022-08-26T07:16:54.552Z,26.66
2022-08-26T07:19:29.882Z,26.73
2022-08-26T07:22:04.586Z,26.80
2022-08-26T07:24:37.118Z,26.84
2022-08-26T07:27:08.581Z,26.91
2022-08-26T07:29:37.687Z,27.11
2022-08-26T07:32:05.218Z,27.09
2022-08-26T07:34:33.080Z,27.31
2022-08-26T07:37:01.037Z,27.22
2022-08-26T07:39:28.458Z,27.20
2022-08-26T07:42:00.301Z,27.21
2022-08-26T07:44:28.665Z,27.12
2022-08-26T07:46:56.677Z,27.08
2022-08-26T07:49:26.788Z,27.19
2022-08-26T07:51:56.066Z,27.11
2022-08-26T07:54:24.613Z,27.06
2022-08-26T07:56:55.864Z,26.94
2022-08-26T07:59:24.410Z,27.04
2022-08-26T08:01:52.118Z,27.14
2022-08-26T08:04:26.233Z,27.19
2022-08-26T08:06:55.114Z,27.18
2022-08-26T08:09:23.081Z,27.04
2022-08-26T08:11:51.372Z,27.02
2022-08-26T08:14:22.215Z,26.89
2022-08-26T08:16:51.134Z,27.03
2022-08-26T08:19:22.083Z,26.92
2022-08-26T08:21:49.754Z,26.78
2022-08-26T08:24:18.559Z,26.90
2022-08-26T08:26:46.145Z,27.00
2022-08-26T08:29:13.874Z,26.87
2022-08-26T08:31:58.078Z,27.03
2022-08-26T08:34:28.694Z,26.99
2022-08-26T08:36:57.542Z,27.10
2022-08-26T08:39:25.366Z,27.35
2022-08-26T08:42:10.899Z,27.70
2022-08-26T08:44:42.478Z,28.13
2022-08-26T08:47:35.972Z,28.34
2022-08-26T08:50:13.272Z,28.69
2022-08-26T08:52:44.444Z,28.88
2022-08-26T08:55:18.107Z,29.19
2022-08-26T08:58:08.368Z,29.43
2022-08-26T09:00:55.430Z,29.87
2022-08-26T09:03:37.625Z,29.56
2022-08-26T09:06:16.995Z,29.57
2022-08-26T09:08:47.500Z,29.57
2022-08-26T09:11:19.711Z,29.47
2022-08-26T09:13:55.901Z,29.40
2022-08-26T09:16:39.736Z,29.50
2022-08-26T09:19:43.486Z,29.43
2022-08-26T09:22:10.965Z,29.59
2022-08-26T09:24:42.101Z,29.69
2022-08-26T09:27:41.509Z,29.83
2022-08-26T09:30:11.657Z,29.93
2022-08-26T09:32:39.913Z,30.27
2022-08-26T09:35:25.446Z,30.49
2022-08-26T09:37:53.294Z,30.68
2022-08-26T09:40:30.948Z,30.80
2022-08-26T09:43:22.604Z,30.92
2022-08-26T09:45:59.199Z,31.05
2022-08-26T09:48:36.695Z,31.04
2022-08-26T09:51:31.077Z,31.13
2022-08-26T09:54:00.883Z,31.51
2022-08-26T09:56:37.443Z,31.55
2022-08-26T09:59:10.913Z,31.44
2022-08-26T10:01:44.728Z,31.33
2022-08-26T10:04:22.862Z,31.13
2022-08-26T10:07:05.168Z,31.12
2022-08-26T10:09:39.514Z,30.84
2022-08-26T10:12:35.204Z,30.84
2022-08-26T10:15:10.517Z,30.91
2022-08-26T10:17:56.086Z,30.73
2022-08-26T10:20:27.763Z,30.56
2022-08-26T10:23:10.043Z,30.50
2022-08-26T10:25:51.913Z,30.42
2022-08-26T10:28:47.359Z,30.47
2022-08-26T10:31:28.358Z,30.54
2022-08-26T10:34:00.323Z,30.52
2022-08-26T10:40:02.701Z,30.51
2022-08-26T10:42:54.418Z,30.68
2022-08-26T10:45:30.305Z,30.45
2022-08-26T10:48:00.915Z,30.57
2022-08-26T10:50:37.618Z,30.42
2022-08-26T10:53:17.081Z,30.39
2022-08-26T10:55:54.831Z,30.49
2022-08-26T10:58:50.576Z,30.27
2022-08-26T11:01:42.126Z,30.29
2022-08-26T11:04:34.975Z,30.26
2022-08-26T11:07:36.787Z,30.10
2022-08-26T11:10:25.376Z,30.08
2022-08-26T11:12:54.126Z,29.91
2022-08-26T11:15:24.575Z,29.63
2022-08-26T11:17:52.114Z,29.56
2022-08-26T11:20:34.376Z,29.59
2022-08-26T11:23:14.002Z,29.79
2022-08-26T11:26:10.154Z,29.90
2022-08-26T11:28:50.879Z,29.83
2022-08-26T11:31:26.681Z,29.94
2022-08-26T11:34:08.691Z,30.12
2022-08-26T11:36:40.622Z,30.23
2022-08-26T11:39:29.474Z,30.31
2022-08-26T11:42:02.256Z,30.44
2022-08-26T11:44:41.766Z,30.62
2022-08-26T11:47:25.323Z,30.68
2022-08-26T11:50:11.139Z,30.81
2022-08-26T11:52:38.470Z,30.87
2022-08-26T11:55:09.167Z,30.73
2022-08-26T11:57:47.066Z,30.79
2022-08-26T12:00:38.867Z,30.65
2022-08-26T12:03:21.536Z,30.57
2022-08-26T12:05:53.242Z,30.50
2022-08-26T12:08:24.998Z,30.40
2022-08-26T12:11:06.796Z,30.47
2022-08-26T12:13:34.222Z,30.53
2022-08-26T12:16:02.695Z,30.51
2022-08-26T12:18:33.427Z,30.59
2022-08-26T12:21:12.355Z,30.55
2022-08-26T12:23:41.860Z,30.49
2022-08-26T12:26:25.823Z,30.51
2022-08-26T12:28:58.404Z,30.58
2022-08-26T12:31:33.119Z,30.91
2022-08-26T12:34:06.245Z,31.21
2022-08-26T12:36:49.103Z,31.33
2022-08-26T12:39:27.992Z,31.53
2022-08-26T12:42:21.658Z,31.68
2022-08-26T12:45:06.508Z,31.66
2022-08-26T12:47:44.198Z,31.92
2022-08-26T12:50:27.926Z,32.19
2022-08-26T12:53:01.249Z,32.63
2022-08-26T12:55:48.411Z,32.34
2022-08-26T12:58:15.692Z,32.27
2022-08-26T13:00:48.542Z,32.26
2022-08-26T13:03:35.313Z,32.42
2022-08-26T13:06:17.654Z,32.60
2022-08-26T13:09:01.716Z,33.15
2022-08-26T13:11:39.559Z,33.48
2022-08-26T13:14:21.113Z,33.52
2022-08-26T13:16:52.921Z,33.83
2022-08-26T13:19:23.560Z,34.24
2022-08-26T13:21:53.982Z,34.45
2022-08-26T13:24:29.107Z,34.71
2022-08-26T13:26:57.035Z,34.99
2022-08-26T13:29:24.355Z,35.18
2022-08-26T13:31:52.401Z,35.03
2022-08-26T13:34:22.430Z,34.81
2022-08-26T13:36:51.878Z,35.00
2022-08-26T13:39:19.841Z,35.33
2022-08-26T13:41:47.696Z,35.04
2022-08-26T13:44:14.941Z,34.78
2022-08-26T13:46:42.726Z,34.84
2022-08-26T13:49:13.928Z,34.96
2022-08-26T13:51:41.890Z,34.99
2022-08-26T13:54:09.259Z,34.94
2022-08-26T13:56:37.505Z,34.66
2022-08-26T13:59:05.587Z,34.40
2022-08-26T14:01:34.495Z,34.23
2022-08-26T14:04:03.154Z,34.05
2022-08-26T14:06:31.125Z,33.86
2022-08-26T14:08:58.670Z,34.03
2022-08-26T14:11:26.104Z,34.48
2022-08-26T14:13:53.479Z,34.49
2022-08-26T14:16:28.247Z,34.29
2022-08-26T14:18:55.614Z,34.28
2022-08-26T14:21:24.376Z,34.34
2022-08-26T14:23:51.625Z,34.63
2022-08-26T14:26:28.735Z,34.68
2022-08-26T14:29:00.150Z,34.92
2022-08-26T14:31:29.868Z,34.88
2022-08-26T14:34:03.225Z,34.71
2022-08-26T14:36:33.860Z,34.81
2022-08-26T14:39:09.387Z,34.66
2022-08-26T14:41:43.366Z,34.37
2022-08-26T14:44:13.892Z,34.50
2022-08-26T14:46:47.919Z,34.37
2022-08-26T14:49:16.420Z,34.39
2022-08-26T14:51:43.937Z,34.05
2022-08-26T14:54:13.098Z,33.64
2022-08-26T14:56:46.408Z,33.42
2022-08-26T14:59:17.736Z,33.40
2022-08-26T15:01:46.092Z,33.41
2022-08-26T15:04:14.253Z,33.85
2022-08-26T15:06:41.676Z,34.17
2022-08-26T15:09:09.783Z,34.62
2022-08-26T15:11:37.089Z,34.86
2022-08-26T15:14:04.511Z,34.69
2022-08-26T15:16:31.939Z,34.22
2022-08-26T15:19:00.678Z,34.44
2022-08-26T15:21:28.632Z,34.35
2022-08-26T15:23:55.967Z,34.31
2022-08-26T15:26:23.968Z,34.15
2022-08-26T15:28:52.101Z,34.45
2022-08-26T15:31:25.611Z,34.52
2022-08-26T16:40:46.910Z,28.18
2022-08-26T16:43:15.186Z,28.22
2022-08-26T16:45:43.359Z,28.29
2022-08-26T16:48:11.335Z,28.39
2022-08-26T16:50:40.832Z,28.61
2022-08-26T16:55:46.341Z,28.79
2022-08-26T16:58:14.694Z,28.74
2022-08-26T17:00:42.476Z,28.82
2022-08-26T17:03:10.661Z,28.79
2022-08-26T17:05:38.307Z,28.77
2022-08-26T17:08:06.573Z,28.84
2022-08-26T17:10:34.811Z,28.77
2022-08-26T17:13:02.606Z,28.69
2022-08-26T17:15:30.233Z,28.63
2022-08-26T17:17:57.858Z,28.54
2022-08-26T17:20:26.767Z,28.52
2022-08-26T17:22:56.250Z,28.47
2022-08-26T17:25:31.865Z,28.43
2022-08-26T17:28:00.686Z,28.38
2022-08-26T17:30:30.876Z,28.41
2022-08-26T17:32:58.677Z,28.36
2022-08-26T17:35:27.439Z,28.37
2022-08-26T17:37:56.212Z,28.36
2022-08-26T17:40:27.093Z,28.39
2022-08-26T17:42:55.061Z,28.41
2022-08-26T17:45:23.039Z,28.48
2022-08-26T17:47:50.560Z,28.39
2022-08-26T17:50:19.278Z,28.35
2022-08-26T17:52:47.076Z,28.28
2022-08-26T17:55:17.162Z,28.22
2022-08-26T17:57:53.303Z,28.17
2022-08-26T18:00:26.686Z,28.17
2022-08-26T18:02:55.934Z,27.99
2022-08-26T18:05:24.068Z,28.11
2022-08-26T18:07:53.465Z,28.14
2022-08-26T18:10:22.055Z,28.11
2022-08-26T18:12:50.368Z,27.93
2022-08-26T18:15:18.437Z,27.75
2022-08-26T18:17:53.008Z,27.77
2022-08-26T18:20:23.574Z,27.80
2022-08-26T18:22:51.234Z,28.01
2022-08-26T18:25:19.169Z,27.96
2022-08-26T18:27:47.408Z,27.84
2022-08-26T18:30:20.787Z,27.73
2022-08-26T18:32:52.750Z,27.68
2022-08-26T18:35:21.564Z,27.56
2022-08-26T18:37:52.076Z,27.43
2022-08-26T18:40:20.108Z,27.33
2022-08-26T18:42:49.288Z,27.45
2022-08-26T18:45:23.035Z,27.36
2022-08-26T18:47:51.007Z,27.34
2022-08-26T18:50:20.401Z,27.24
2022-08-26T18:52:49.484Z,27.19
2022-08-26T18:55:21.351Z,27.16
2022-08-26T18:57:49.514Z,27.16
2022-08-26T19:00:18.107Z,27.05
2022-08-26T19:02:52.142Z,27.11
2022-08-26T19:05:23.421Z,26.93
2022-08-26T19:07:53.826Z,26.94
2022-08-26T19:10:21.355Z,26.88
2022-08-26T19:12:51.932Z,26.92
2022-08-26T19:15:20.467Z,26.86
2022-08-26T19:17:48.279Z,26.85
2022-08-26T19:20:17.870Z,26.77
2022-08-26T19:22:46.059Z,26.80
2022-08-26T19:25:14.184Z,26.80
2022-08-26T19:27:41.988Z,26.77
2022-08-26T19:30:12.553Z,26.69
2022-08-26T19:32:40.151Z,26.64
2022-08-26T19:35:08.945Z,26.57
2022-08-26T19:37:37.006Z,26.42
2022-08-26T19:40:06.330Z,26.36
2022-08-26T19:42:34.581Z,26.31
2022-08-26T19:45:18.272Z,26.21
2022-08-26T19:47:53.972Z,26.25
2022-08-26T19:50:22.251Z,26.22
2022-08-26T19:52:53.655Z,26.18
2022-08-26T19:55:23.540Z,26.15
2022-08-26T19:57:52.552Z,26.11
2022-08-26T20:00:31.835Z,25.96
2022-08-26T20:03:00.162Z,26.01
2022-08-26T20:05:28.462Z,25.92
2022-08-26T20:07:59.921Z,25.92
2022-08-26T20:10:29.079Z,25.96
2022-08-26T20:12:57.353Z,26.00
2022-08-26T20:15:25.184Z,26.02
2022-08-26T20:17:56.135Z,25.87
2022-08-26T20:20:42.302Z,25.88
2022-08-26T20:23:10.089Z,25.84
2022-08-26T20:25:37.729Z,25.79
2022-08-26T20:28:05.348Z,25.94
2022-08-26T20:30:32.972Z,26.04
2022-08-26T20:33:00.645Z,25.93
2022-08-26T20:35:28.181Z,25.97
2022-08-26T20:37:55.739Z,26.08
2022-08-26T20:40:23.481Z,25.78
2022-08-26T20:42:51.549Z,25.57
2022-08-26T20:45:21.921Z,25.46
2022-08-26T20:47:49.497Z,25.36
2022-08-26T20:50:17.064Z,25.25
2022-08-26T20:52:44.700Z,25.27
2022-08-26T20:55:12.337Z,25.35
2022-08-26T20:57:43.252Z,25.45
2022-08-26T21:00:13.300Z,25.48
2022-08-26T21:02:42.003Z,25.46
2022-08-26T21:05:09.818Z,25.37
2022-08-26T21:07:37.485Z,25.34
2022-08-26T21:10:05.498Z,25.36
2022-08-26T21:12:33.176Z,25.39
2022-08-26T21:15:01.460Z,25.43
2022-08-26T21:17:29.332Z,25.34
2022-08-26T21:19:56.917Z,25.30
2022-08-26T21:22:25.066Z,25.23
2022-08-26T21:24:52.580Z,25.17
2022-08-26T21:27:26.222Z,25.14
2022-08-26T21:29:54.972Z,25.26
2022-08-26T21:32:22.722Z,25.17
2022-08-26T21:34:50.207Z,25.06
2022-08-26T21:37:18.197Z,25.00
2022-08-26T21:39:45.691Z,25.06
2022-08-26T21:42:13.328Z,25.11
2022-08-26T21:44:40.783Z,25.01
2022-08-26T21:47:08.267Z,24.95
2022-08-26T21:49:36.343Z,24.87
2022-08-26T21:52:04.794Z,24.82
2022-08-26T21:54:32.859Z,24.81
2022-08-26T21:57:00.363Z,24.80
2022-08-26T21:59:28.071Z,24.75
2022-08-26T22:01:56.286Z,24.67
2022-08-26T22:04:25.813Z,24.59
2022-08-26T22:07:00.004Z,24.51
2022-08-26T22:09:31.599Z,24.46
2022-08-26T22:12:00.633Z,24.33
2022-08-26T22:14:30.938Z,24.23
2022-08-26T22:17:00.644Z,24.15
2022-08-26T22:19:28.519Z,24.25
2022-08-26T22:21:58.186Z,24.24
2022-08-26T22:24:27.524Z,24.33
2022-08-26T22:26:56.306Z,24.41
2022-08-26T22:29:25.607Z,24.29
2022-08-26T22:31:53.642Z,24.21
2022-08-26T22:34:23.665Z,24.23
2022-08-26T22:36:52.716Z,24.10
2022-08-26T22:39:24.043Z,24.26
2022-08-26T22:41:53.260Z,24.17
2022-08-26T22:44:22.434Z,24.08
2022-08-26T22:46:54.278Z,24.07
2022-08-26T22:49:22.936Z,24.04
2022-08-26T22:51:54.515Z,24.02
2022-08-26T22:54:22.081Z,23.97
2022-08-26T22:56:49.578Z,23.90
2022-08-26T22:59:17.157Z,23.69
2022-08-26T23:01:46.878Z,23.70
2022-08-26T23:04:15.516Z,23.65
2022-08-26T23:06:47.567Z,23.88
2022-08-26T23:09:18.139Z,23.78
2022-08-26T23:11:48.406Z,23.56
2022-08-26T23:14:18.082Z,23.62
2022-08-26T23:16:47.377Z,23.65
2022-08-26T23:19:21.049Z,23.53
2022-08-26T23:21:49.637Z,23.49
2022-08-26T23:24:17.495Z,23.49
2022-08-26T23:26:46.509Z,23.51
2022-08-26T23:29:15.708Z,23.51
2022-08-26T23:31:43.876Z,23.47
2022-08-26T23:34:30.389Z,23.60
2022-08-26T23:36:58.982Z,23.63
2022-08-26T23:39:27.833Z,23.60
2022-08-26T23:41:56.833Z,23.63
2022-08-26T23:44:26.561Z,23.60
2022-08-26T23:46:54.679Z,23.75
2022-08-26T23:49:22.486Z,23.73
2022-08-26T23:52:08.610Z,23.79
2022-08-26T23:54:36.710Z,23.83
2022-08-26T23:57:04.342Z,23.75
2022-08-26T23:59:32.184Z,23.45
